sensor_id;sensor_type;location;lat;lon;timestamp;pressure;altitude;pressure_sealevel;temperature;humidity
21086;BME280;34247;50.064;19.970;2023-03-31T00:00:36;98493.53;;;12.16;83.96
21086;BME280;34247;50.064;19.970;2023-03-31T00:01:41;98491.19;;;12.23;83.24
21086;BME280;34247;50.064;19.970;2023-03-31T00:02:48;98488.66;;;12.21;83.74
21086;BME280;34247;50.064;19.970;2023-03-31T00:03:55;98484.06;;;12.23;83.35
21086;BME280;34247;50.064;19.970;2023-03-31T00:05:20;98491.91;;;12.25;83.50
21086;BME280;34247;50.064;19.970;2023-03-31T00:06:35;98490.22;;;12.24;83.07
21086;BME280;34247;50.064;19.970;2023-03-31T00:07:47;98488.28;;;12.26;83.46
21086;BME280;34247;50.064;19.970;2023-03-31T00:08:51;98484.50;;;12.28;83.06
21086;BME280;34247;50.064;19.970;2023-03-31T00:09:56;98495.44;;;12.25;83.21
21086;BME280;34247;50.064;19.970;2023-03-31T00:11:21;98488.13;;;12.27;83.02
21086;BME280;34247;50.064;19.970;2023-03-31T00:12:25;98500.31;;;12.30;83.17
21086;BME280;34247;50.064;19.970;2023-03-31T00:13:30;98490.53;;;12.30;83.00
21086;BME280;34247;50.064;19.970;2023-03-31T00:14:34;98490.66;;;12.29;83.15
21086;BME280;34247;50.064;19.970;2023-03-31T00:15:38;98496.13;;;12.27;83.45
21086;BME280;34247;50.064;19.970;2023-03-31T00:16:43;98506.47;;;12.30;83.41
21086;BME280;34247;50.064;19.970;2023-03-31T00:17:48;98501.16;;;12.30;83.24
21086;BME280;34247;50.064;19.970;2023-03-31T00:18:52;98498.25;;;12.33;83.22
21086;BME280;34247;50.064;19.970;2023-03-31T00:19:56;98498.50;;;12.30;83.08
21086;BME280;34247;50.064;19.970;2023-03-31T00:21:23;98491.25;;;12.32;83.22
21086;BME280;34247;50.064;19.970;2023-03-31T00:22:28;98491.94;;;12.34;83.28
21086;BME280;34247;50.064;19.970;2023-03-31T00:23:32;98500.63;;;12.36;83.01
21086;BME280;34247;50.064;19.970;2023-03-31T00:24:37;98495.16;;;12.38;82.95
21086;BME280;34247;50.064;19.970;2023-03-31T00:25:43;98493.38;;;12.38;82.84
21086;BME280;34247;50.064;19.970;2023-03-31T00:26:47;98496.97;;;12.37;82.74
21086;BME280;34247;50.064;19.970;2023-03-31T00:27:54;98500.31;;;12.30;83.52
21086;BME280;34247;50.064;19.970;2023-03-31T00:28:59;98495.00;;;12.30;83.48
21086;BME280;34247;50.064;19.970;2023-03-31T00:30:03;98499.47;;;12.29;83.50
21086;BME280;34247;50.064;19.970;2023-03-31T00:31:17;98508.91;;;12.33;83.58
21086;BME280;34247;50.064;19.970;2023-03-31T00:32:21;98509.88;;;12.32;83.66
21086;BME280;34247;50.064;19.970;2023-03-31T00:33:25;98501.16;;;12.30;83.27
21086;BME280;34247;50.064;19.970;2023-03-31T00:34:30;98506.47;;;12.30;83.57
21086;BME280;34247;50.064;19.970;2023-03-31T00:35:35;98505.53;;;12.31;83.67
21086;BME280;34247;50.064;19.970;2023-03-31T00:36:41;98498.63;;;12.29;83.66
21086;BME280;34247;50.064;19.970;2023-03-31T00:37:50;98500.22;;;12.31;83.69
21086;BME280;34247;50.064;19.970;2023-03-31T00:38:59;98502.00;;;12.31;83.66
21086;BME280;34247;50.064;19.970;2023-03-31T00:40:09;98506.63;;;12.29;83.86
21086;BME280;34247;50.064;19.970;2023-03-31T00:41:14;98497.81;;;12.28;83.90
21086;BME280;34247;50.064;19.970;2023-03-31T00:42:19;98495.00;;;12.30;83.39
21086;BME280;34247;50.064;19.970;2023-03-31T00:43:35;98489.13;;;12.26;84.03
21086;BME280;34247;50.064;19.970;2023-03-31T00:48:17;98491.91;;;12.25;83.86
21086;BME280;34247;50.064;19.970;2023-03-31T00:49:39;98490.22;;;12.24;83.74
21086;BME280;34247;50.064;19.970;2023-03-31T00:50:53;98495.44;;;12.25;83.56
21086;BME280;34247;50.064;19.970;2023-03-31T00:52:20;98497.94;;;12.27;83.72
21086;BME280;34247;50.064;19.970;2023-03-31T00:53:31;98498.34;;;12.22;83.52
21086;BME280;34247;50.064;19.970;2023-03-31T00:54:39;98492.16;;;12.22;83.82
21086;BME280;34247;50.064;19.970;2023-03-31T00:55:51;98490.34;;;12.22;83.76
21086;BME280;34247;50.064;19.970;2023-03-31T00:56:58;98496.66;;;12.21;83.70
21086;BME280;34247;50.064;19.970;2023-03-31T00:58:09;98494.97;;;12.20;83.51
21086;BME280;34247;50.064;19.970;2023-03-31T00:59:17;98494.13;;;12.20;83.53
21086;BME280;34247;50.064;19.970;2023-03-31T01:00:22;98495.25;;;12.17;83.64
21086;BME280;34247;50.064;19.970;2023-03-31T01:01:30;98491.63;;;12.18;83.55
21086;BME280;34247;50.064;19.970;2023-03-31T01:02:34;98491.72;;;12.17;83.87
21086;BME280;34247;50.064;19.970;2023-03-31T01:03:47;98488.66;;;12.11;84.16
21086;BME280;34247;50.064;19.970;2023-03-31T01:05:00;98485.16;;;12.11;83.76
21086;BME280;34247;50.064;19.970;2023-03-31T01:06:08;98490.47;;;12.11;83.72
21086;BME280;34247;50.064;19.970;2023-03-31T01:07:29;98489.72;;;12.09;83.92
21086;BME280;34247;50.064;19.970;2023-03-31T01:08:43;98483.72;;;12.07;83.86
21086;BME280;34247;50.064;19.970;2023-03-31T01:09:47;98484.56;;;12.07;83.72
21086;BME280;34247;50.064;19.970;2023-03-31T01:11:06;98487.03;;;11.99;84.55
21086;BME280;34247;50.064;19.970;2023-03-31T01:12:17;98488.56;;;12.02;84.09
21086;BME280;34247;50.064;19.970;2023-03-31T01:13:24;98485.91;;;12.02;84.28
21086;BME280;34247;50.064;19.970;2023-03-31T01:14:39;98481.72;;;11.99;84.08
21086;BME280;34247;50.064;19.970;2023-03-31T01:15:43;98488.56;;;12.02;83.94
21086;BME280;34247;50.064;19.970;2023-03-31T01:16:47;98482.41;;;12.01;84.35
21086;BME280;34247;50.064;19.970;2023-03-31T01:17:55;98481.72;;;11.99;83.96
21086;BME280;34247;50.064;19.970;2023-03-31T01:19:00;98479.06;;;11.99;84.16
21086;BME280;34247;50.064;19.970;2023-03-31T01:29:03;98488.38;;;11.84;84.49
21086;BME280;34247;50.064;19.970;2023-03-31T01:30:41;98482.53;;;11.90;84.15
21086;BME280;34247;50.064;19.970;2023-03-31T01:34:08;98480.72;;;11.91;83.76
21086;BME280;34247;50.064;19.970;2023-03-31T01:38:50;98485.56;;;11.85;84.25
21086;BME280;34247;50.064;19.970;2023-03-31T01:40:14;98486.69;;;11.83;84.50
21086;BME280;34247;50.064;19.970;2023-03-31T01:44:07;98481.22;;;11.84;84.00
21086;BME280;34247;50.064;19.970;2023-03-31T01:46:57;98484.22;;;11.91;83.72
21086;BME280;34247;50.064;19.970;2023-03-31T01:50:41;98486.72;;;11.93;83.76
21086;BME280;34247;50.064;19.970;2023-03-31T01:52:30;98487.16;;;11.88;83.60
21086;BME280;34247;50.064;19.970;2023-03-31T01:55:36;98485.03;;;11.92;83.25
21086;BME280;34247;50.064;19.970;2023-03-31T01:56:53;98480.00;;;11.89;83.40
21086;BME280;34247;50.064;19.970;2023-03-31T02:00:37;98497.19;;;11.84;83.89
21086;BME280;34247;50.064;19.970;2023-03-31T02:01:55;98484.16;;;11.81;84.09
21086;BME280;34247;50.064;19.970;2023-03-31T02:03:25;98498.88;;;11.85;83.69
21086;BME280;34247;50.064;19.970;2023-03-31T02:04:47;98492.84;;;11.83;83.64
21086;BME280;34247;50.064;19.970;2023-03-31T02:05:58;98496.47;;;11.82;83.59
21086;BME280;34247;50.064;19.970;2023-03-31T02:07:19;98492.97;;;11.82;83.85
21086;BME280;34247;50.064;19.970;2023-03-31T02:08:44;98485.34;;;11.77;83.81
21086;BME280;34247;50.064;19.970;2023-03-31T02:09:59;98495.00;;;11.78;83.74
21086;BME280;34247;50.064;19.970;2023-03-31T02:11:13;98487.03;;;11.78;83.97
21086;BME280;34247;50.064;19.970;2023-03-31T02:12:21;98493.81;;;11.82;83.48
21086;BME280;34247;50.064;19.970;2023-03-31T02:13:38;98493.81;;;11.82;83.40
21086;BME280;34247;50.064;19.970;2023-03-31T02:14:54;98499.13;;;11.82;83.42
21086;BME280;34247;50.064;19.970;2023-03-31T02:16:08;98490.03;;;11.85;83.24
21086;BME280;34247;50.064;19.970;2023-03-31T02:17:26;98492.72;;;11.85;83.31
21086;BME280;34247;50.064;19.970;2023-03-31T02:18:41;98492.47;;;11.88;83.34
21086;BME280;34247;50.064;19.970;2023-03-31T02:19:52;98499.31;;;11.91;82.97
21086;BME280;34247;50.064;19.970;2023-03-31T02:20:59;98495.69;;;11.92;83.03
21086;BME280;34247;50.064;19.970;2023-03-31T02:22:07;98485.03;;;11.92;82.79
21086;BME280;34247;50.064;19.970;2023-03-31T02:23:14;98491.78;;;11.96;82.50
21086;BME280;34247;50.064;19.970;2023-03-31T02:24:28;98487.31;;;11.96;82.41
21086;BME280;34247;50.064;19.970;2023-03-31T02:26:09;98480.84;;;11.89;82.47
21086;BME280;34247;50.064;19.970;2023-03-31T02:27:44;98483.63;;;11.87;82.41
21086;BME280;34247;50.064;19.970;2023-03-31T02:28:58;98476.50;;;11.88;82.51
21086;BME280;34247;50.064;19.970;2023-03-31T02:30:14;98487.00;;;11.90;82.16
21086;BME280;34247;50.064;19.970;2023-03-31T02:31:45;98494.25;;;11.87;82.02
21086;BME280;34247;50.064;19.970;2023-03-31T02:32:51;98486.28;;;11.87;82.05
21086;BME280;34247;50.064;19.970;2023-03-31T02:33:55;98485.19;;;11.90;82.19
21086;BME280;34247;50.064;19.970;2023-03-31T02:35:00;98487.00;;;11.90;82.08
21086;BME280;34247;50.064;19.970;2023-03-31T02:36:12;98489.91;;;11.86;81.99
21086;BME280;34247;50.064;19.970;2023-03-31T02:37:17;98486.53;;;11.84;82.14
21086;BME280;34247;50.064;19.970;2023-03-31T02:38:21;98493.09;;;11.80;82.08
21086;BME280;34247;50.064;19.970;2023-03-31T02:39:35;98493.34;;;11.77;82.25
21086;BME280;34247;50.064;19.970;2023-03-31T02:40:42;98489.84;;;11.77;82.52
21086;BME280;34247;50.064;19.970;2023-03-31T02:41:46;98486.81;;;11.81;82.11
21086;BME280;34247;50.064;19.970;2023-03-31T02:42:51;98485.00;;;11.82;82.09
21086;BME280;34247;50.064;19.970;2023-03-31T02:43:58;98488.38;;;11.84;82.04
21086;BME280;34247;50.064;19.970;2023-03-31T02:45:38;98484.88;;;11.83;81.63
21086;BME280;34247;50.064;19.970;2023-03-31T02:46:53;98486.28;;;11.87;81.67
21086;BME280;34247;50.064;19.970;2023-03-31T02:47:57;98482.53;;;11.90;81.52
21086;BME280;34247;50.064;19.970;2023-03-31T02:49:05;98486.41;;;11.86;81.26
21086;BME280;34247;50.064;19.970;2023-03-31T02:50:13;98492.34;;;11.78;81.79
21086;BME280;34247;50.064;19.970;2023-03-31T02:51:56;98492.84;;;11.83;81.49
21086;BME280;34247;50.064;19.970;2023-03-31T02:58:24;98487.25;;;11.86;80.87
21086;BME280;34247;50.064;19.970;2023-03-31T03:01:36;98479.34;;;11.75;80.97
21086;BME280;34247;50.064;19.970;2023-03-31T03:05:10;98484.72;;;11.85;80.66
21086;BME280;34247;50.064;19.970;2023-03-31T03:09:56;98486.41;;;11.86;80.06
21086;BME280;34247;50.064;19.970;2023-03-31T03:12:55;98480.75;;;11.79;80.20
21086;BME280;34247;50.064;19.970;2023-03-31T03:15:59;98482.97;;;11.74;80.24
21086;BME280;34247;50.064;19.970;2023-03-31T03:17:27;98480.41;;;11.73;80.60
21086;BME280;34247;50.064;19.970;2023-03-31T03:18:36;98483.22;;;11.71;80.58
21086;BME280;34247;50.064;19.970;2023-03-31T03:19:51;98489.50;;;11.70;80.57
21086;BME280;34247;50.064;19.970;2023-03-31T03:20:56;98485.75;;;11.73;80.65
21086;BME280;34247;50.064;19.970;2023-03-31T03:22:22;98485.63;;;11.74;80.64
21086;BME280;34247;50.064;19.970;2023-03-31T03:23:30;98487.97;;;11.68;80.86
21086;BME280;34247;50.064;19.970;2023-03-31T03:24:35;98499.16;;;11.71;80.57
21086;BME280;34247;50.064;19.970;2023-03-31T03:25:40;98495.44;;;11.74;80.54
21086;BME280;34247;50.064;19.970;2023-03-31T03:26:49;98490.63;;;11.68;80.82
21086;BME280;34247;50.064;19.970;2023-03-31T03:27:54;98497.50;;;11.70;80.61
21086;BME280;34247;50.064;19.970;2023-03-31T03:28:58;98490.94;;;11.74;80.33
21086;BME280;34247;50.064;19.970;2023-03-31T03:30:09;98495.28;;;11.75;80.59
21086;BME280;34247;50.064;19.970;2023-03-31T03:31:16;98486.63;;;11.73;80.39
21086;BME280;34247;50.064;19.970;2023-03-31T03:32:20;98496.97;;;11.76;80.38
21086;BME280;34247;50.064;19.970;2023-03-31T03:33:29;98503.00;;;11.78;80.24
21086;BME280;34247;50.064;19.970;2023-03-31T03:34:36;98491.50;;;11.78;80.25
21086;BME280;34247;50.064;19.970;2023-03-31T03:35:42;98486.63;;;11.73;80.20
21086;BME280;34247;50.064;19.970;2023-03-31T03:36:46;98490.22;;;11.72;80.18
21086;BME280;34247;50.064;19.970;2023-03-31T03:37:50;98489.13;;;11.75;79.98
21086;BME280;34247;50.064;19.970;2023-03-31T03:38:56;98486.47;;;11.75;80.25
21086;BME280;34247;50.064;19.970;2023-03-31T03:40:03;98489.13;;;11.75;80.38
21086;BME280;34247;50.064;19.970;2023-03-31T03:41:21;98489.28;;;11.73;80.19
21086;BME280;34247;50.064;19.970;2023-03-31T03:42:25;98481.84;;;11.77;79.95
21086;BME280;34247;50.064;19.970;2023-03-31T03:43:46;98491.16;;;11.82;79.72
21086;BME280;34247;50.064;19.970;2023-03-31T03:44:53;98482.47;;;11.80;79.80
21086;BME280;34247;50.064;19.970;2023-03-31T03:45:58;98475.56;;;11.78;79.87
21086;BME280;34247;50.064;19.970;2023-03-31T03:47:08;98484.78;;;11.74;79.83
21086;BME280;34247;50.064;19.970;2023-03-31T03:48:12;98471.38;;;11.75;79.94
21086;BME280;34247;50.064;19.970;2023-03-31T03:49:17;98473.75;;;11.78;79.71
21086;BME280;34247;50.064;19.970;2023-03-31T03:50:21;98473.75;;;11.78;79.69
21086;BME280;34247;50.064;19.970;2023-03-31T03:52:55;98468.22;;;11.81;79.44
21086;BME280;34247;50.064;19.970;2023-03-31T03:54:05;98471.75;;;11.71;80.17
21086;BME280;34247;50.064;19.970;2023-03-31T03:55:18;98469.69;;;11.74;79.68
21086;BME280;34247;50.064;19.970;2023-03-31T03:56:36;98476.81;;;11.74;79.74
21086;BME280;34247;50.064;19.970;2023-03-31T03:57:40;98474.84;;;11.76;79.74
21086;BME280;34247;50.064;19.970;2023-03-31T03:59:01;98468.00;;;11.73;79.82
21086;BME280;34247;50.064;19.970;2023-03-31T04:00:07;98475.69;;;11.76;79.53
21086;BME280;34247;50.064;19.970;2023-03-31T04:01:15;98460.88;;;11.74;80.01
21086;BME280;34247;50.064;19.970;2023-03-31T04:02:22;98464.78;;;11.79;79.60
21086;BME280;34247;50.064;19.970;2023-03-31T04:03:30;98461.81;;;11.73;80.13
21086;BME280;34247;50.064;19.970;2023-03-31T04:04:34;98464.22;;;11.76;79.56
21086;BME280;34247;50.064;19.970;2023-03-31T04:05:39;98461.13;;;11.71;79.72
21086;BME280;34247;50.064;19.970;2023-03-31T04:06:49;98459.44;;;11.70;80.07
21086;BME280;34247;50.064;19.970;2023-03-31T04:07:57;98460.41;;;11.69;79.91
21086;BME280;34247;50.064;19.970;2023-03-31T04:09:01;98458.59;;;11.69;80.04
21086;BME280;34247;50.064;19.970;2023-03-31T04:10:13;98454.25;;;11.68;79.77
21086;BME280;34247;50.064;19.970;2023-03-31T04:11:18;98457.06;;;11.67;80.02
21086;BME280;34247;50.064;19.970;2023-03-31T04:12:33;98470.06;;;11.70;80.00
21086;BME280;34247;50.064;19.970;2023-03-31T04:13:46;98456.06;;;11.68;80.29
21086;BME280;34247;50.064;19.970;2023-03-31T04:15:04;98454.25;;;11.68;80.01
21086;BME280;34247;50.064;19.970;2023-03-31T04:16:18;98460.41;;;11.69;79.57
21086;BME280;34247;50.064;19.970;2023-03-31T04:17:23;98462.94;;;11.70;79.71
21086;BME280;34247;50.064;19.970;2023-03-31T04:18:37;98469.50;;;11.66;79.99
21086;BME280;34247;50.064;19.970;2023-03-31T04:20:02;98467.03;;;11.74;79.58
21086;BME280;34247;50.064;19.970;2023-03-31T04:21:14;98458.31;;;11.72;79.61
21086;BME280;34247;50.064;19.970;2023-03-31T04:22:38;98458.78;;;11.77;79.51
21086;BME280;34247;50.064;19.970;2023-03-31T04:23:54;98457.63;;;11.70;79.55
21086;BME280;34247;50.064;19.970;2023-03-31T04:25:11;98447.56;;;11.74;79.50
21086;BME280;34247;50.064;19.970;2023-03-31T04:26:22;98446.59;;;11.75;79.10
21086;BME280;34247;50.064;19.970;2023-03-31T04:27:49;98455.41;;;11.75;78.98
21086;BME280;34247;50.064;19.970;2023-03-31T04:29:00;98450.22;;;11.74;79.02
21086;BME280;34247;50.064;19.970;2023-03-31T04:30:21;98446.75;;;11.73;78.84
21086;BME280;34247;50.064;19.970;2023-03-31T04:31:31;98438.03;;;11.71;79.39
21086;BME280;34247;50.064;19.970;2023-03-31T04:32:40;98441.41;;;11.73;79.02
21086;BME280;34247;50.064;19.970;2023-03-31T04:33:47;98442.38;;;11.72;79.26
21086;BME280;34247;50.064;19.970;2023-03-31T04:35:00;98436.09;;;11.73;79.00
21086;BME280;34247;50.064;19.970;2023-03-31T04:36:06;98442.38;;;11.72;79.11
21086;BME280;34247;50.064;19.970;2023-03-31T04:37:25;98438.63;;;11.75;79.05
21086;BME280;34247;50.064;19.970;2023-03-31T04:38:32;98434.38;;;11.72;79.12
21086;BME280;34247;50.064;19.970;2023-03-31T04:39:36;98441.28;;;11.75;79.21
21086;BME280;34247;50.064;19.970;2023-03-31T04:40:55;98438.63;;;11.75;78.94
21086;BME280;34247;50.064;19.970;2023-03-31T04:42:00;98443.09;;;11.74;79.26
21086;BME280;34247;50.064;19.970;2023-03-31T04:43:06;98434.00;;;11.77;79.04
21086;BME280;34247;50.064;19.970;2023-03-31T04:44:13;98433.16;;;11.76;78.76
21086;BME280;34247;50.064;19.970;2023-03-31T04:45:17;98436.09;;;11.73;78.95
21086;BME280;34247;50.064;19.970;2023-03-31T04:46:21;98431.47;;;11.75;78.80
21086;BME280;34247;50.064;19.970;2023-03-31T04:47:26;98431.63;;;11.74;79.08
21086;BME280;34247;50.064;19.970;2023-03-31T04:48:29;98429.81;;;11.74;79.04
21086;BME280;34247;50.064;19.970;2023-03-31T04:49:47;98434.16;;;11.75;78.77
21086;BME280;34247;50.064;19.970;2023-03-31T04:51:02;98434.28;;;11.74;78.91
21086;BME280;34247;50.064;19.970;2023-03-31T04:52:13;98441.28;;;11.75;79.13
21086;BME280;34247;50.064;19.970;2023-03-31T04:53:24;98438.31;;;11.68;79.17
21086;BME280;34247;50.064;19.970;2023-03-31T04:54:30;98436.31;;;11.60;79.93
21086;BME280;34247;50.064;19.970;2023-03-31T04:55:34;98440.78;;;11.60;80.00
21086;BME280;34247;50.064;19.970;2023-03-31T04:56:38;98438.69;;;11.64;79.76
21086;BME280;34247;50.064;19.970;2023-03-31T04:57:42;98439.16;;;11.69;79.30
21086;BME280;34247;50.064;19.970;2023-03-31T04:58:46;98440.97;;;11.68;79.73
21086;BME280;34247;50.064;19.970;2023-03-31T04:59:49;98437.03;;;11.72;79.46
21086;BME280;34247;50.064;19.970;2023-03-31T05:00:53;98436.50;;;11.69;79.37
21086;BME280;34247;50.064;19.970;2023-03-31T05:02:01;98430.06;;;11.71;79.22
21086;BME280;34247;50.064;19.970;2023-03-31T05:03:06;98433.44;;;11.73;79.36
21086;BME280;34247;50.064;19.970;2023-03-31T05:04:25;98428.81;;;11.75;79.05
21086;BME280;34247;50.064;19.970;2023-03-31T05:05:29;98430.06;;;11.71;79.00
21086;BME280;34247;50.064;19.970;2023-03-31T05:06:38;98425.47;;;11.73;78.93
21086;BME280;34247;50.064;19.970;2023-03-31T05:07:42;98427.16;;;11.74;78.98
21086;BME280;34247;50.064;19.970;2023-03-31T05:08:59;98426.41;;;11.72;78.95
21086;BME280;34247;50.064;19.970;2023-03-31T05:10:13;98428.97;;;11.74;78.96
21086;BME280;34247;50.064;19.970;2023-03-31T05:11:17;98428.53;;;11.78;78.69
21086;BME280;34247;50.064;19.970;2023-03-31T05:12:22;98419.88;;;11.76;79.07
21086;BME280;34247;50.064;19.970;2023-03-31T05:13:27;98427.97;;;11.75;78.73
21086;BME280;34247;50.064;19.970;2023-03-31T05:14:31;98432.88;;;11.79;78.62
21086;BME280;34247;50.064;19.970;2023-03-31T05:15:37;98428.81;;;11.75;78.96
21086;BME280;34247;50.064;19.970;2023-03-31T05:16:42;98427.16;;;11.74;79.03
21086;BME280;34247;50.064;19.970;2023-03-31T05:17:45;98424.34;;;11.76;79.18
21086;BME280;34247;50.064;19.970;2023-03-31T05:18:50;98423.09;;;11.80;78.75
21086;BME280;34247;50.064;19.970;2023-03-31T05:19:54;98425.41;;;11.84;78.91
21086;BME280;34247;50.064;19.970;2023-03-31T05:21:18;98424.16;;;11.89;78.58
21086;BME280;34247;50.064;19.970;2023-03-31T05:22:22;98428.38;;;11.91;78.21
21086;BME280;34247;50.064;19.970;2023-03-31T05:23:26;98428.75;;;11.86;78.18
21086;BME280;34247;50.064;19.970;2023-03-31T05:24:30;98432.00;;;11.90;78.24
21086;BME280;34247;50.064;19.970;2023-03-31T05:25:34;98429.19;;;11.92;78.06
21086;BME280;34247;50.064;19.970;2023-03-31T05:26:41;98429.47;;;11.89;78.61
21086;BME280;34247;50.064;19.970;2023-03-31T05:27:50;98428.75;;;11.86;78.44
21086;BME280;34247;50.064;19.970;2023-03-31T05:28:55;98431.03;;;11.91;77.96
21086;BME280;34247;50.064;19.970;2023-03-31T05:29:59;98417.03;;;11.89;78.26
21086;BME280;34247;50.064;19.970;2023-03-31T05:31:05;98422.34;;;11.89;77.99
21086;BME280;34247;50.064;19.970;2023-03-31T05:32:10;98421.75;;;11.85;78.36
21086;BME280;34247;50.064;19.970;2023-03-31T05:33:14;98423.19;;;11.90;78.22
21086;BME280;34247;50.064;19.970;2023-03-31T05:34:22;98427.06;;;11.85;78.07
21086;BME280;34247;50.064;19.970;2023-03-31T05:35:26;98420.72;;;11.77;78.59
21086;BME280;34247;50.064;19.970;2023-03-31T05:36:30;98419.50;;;11.81;78.67
21086;BME280;34247;50.064;19.970;2023-03-31T05:37:36;98415.13;;;11.80;78.36
21086;BME280;34247;50.064;19.970;2023-03-31T05:38:42;98416.56;;;11.84;78.29
21086;BME280;34247;50.064;19.970;2023-03-31T05:39:46;98419.38;;;11.82;78.64
21086;BME280;34247;50.064;19.970;2023-03-31T05:40:50;98416.28;;;11.87;78.39
21086;BME280;34247;50.064;19.970;2023-03-31T05:41:54;98405.28;;;11.92;78.15
21086;BME280;34247;50.064;19.970;2023-03-31T05:42:58;98418.28;;;11.95;78.25
21086;BME280;34247;50.064;19.970;2023-03-31T05:44:02;98419.00;;;11.97;77.87
21086;BME280;34247;50.064;19.970;2023-03-31T05:45:06;98407.25;;;11.99;77.97
21086;BME280;34247;50.064;19.970;2023-03-31T05:46:12;98403.47;;;12.02;77.76
21086;BME280;34247;50.064;19.970;2023-03-31T05:47:17;98404.75;;;12.07;77.43
21086;BME280;34247;50.064;19.970;2023-03-31T05:48:21;98403.91;;;12.07;77.44
21086;BME280;34247;50.064;19.970;2023-03-31T05:49:25;98406.03;;;12.13;77.49
21086;BME280;34247;50.064;19.970;2023-03-31T05:50:29;98403.25;;;12.14;77.52
21086;BME280;34247;50.064;19.970;2023-03-31T05:51:36;98402.84;;;12.19;76.94
21086;BME280;34247;50.064;19.970;2023-03-31T05:52:40;98400.03;;;12.21;77.16
21086;BME280;34247;50.064;19.970;2023-03-31T05:53:43;98392.06;;;12.21;76.82
21086;BME280;34247;50.064;19.970;2023-03-31T05:54:48;98395.16;;;12.26;76.68
21086;BME280;34247;50.064;19.970;2023-03-31T05:56:00;98402.84;;;12.29;76.67
21086;BME280;34247;50.064;19.970;2023-03-31T05:57:04;98395.47;;;12.32;76.38
21086;BME280;34247;50.064;19.970;2023-03-31T05:58:08;98396.59;;;12.39;76.32
21086;BME280;34247;50.064;19.970;2023-03-31T05:59:12;98399.25;;;12.49;76.02
21086;BME280;34247;50.064;19.970;2023-03-31T06:00:18;98388.75;;;12.57;75.64
21086;BME280;34247;50.064;19.970;2023-03-31T06:01:22;98391.56;;;12.65;75.27
21086;BME280;34247;50.064;19.970;2023-03-31T06:02:27;98390.72;;;12.75;74.69
21086;BME280;34247;50.064;19.970;2023-03-31T06:03:37;98390.88;;;12.83;74.51
21086;BME280;34247;50.064;19.970;2023-03-31T06:04:41;98381.88;;;12.93;74.63
21086;BME280;34247;50.064;19.970;2023-03-31T06:05:47;98394.78;;;13.08;73.94
21086;BME280;34247;50.064;19.970;2023-03-31T06:06:51;98389.00;;;13.32;73.45
21086;BME280;34247;50.064;19.970;2023-03-31T06:07:56;98393.31;;;13.52;72.43
21086;BME280;34247;50.064;19.970;2023-03-31T06:09:00;98392.13;;;13.74;72.03
21086;BME280;34247;50.064;19.970;2023-03-31T06:10:05;98384.81;;;14.03;69.76
21086;BME280;34247;50.064;19.970;2023-03-31T06:11:18;98383.66;;;14.33;68.30
21086;BME280;34247;50.064;19.970;2023-03-31T06:12:31;98389.81;;;14.61;66.67
21086;BME280;34247;50.064;19.970;2023-03-31T06:13:37;98389.53;;;14.82;65.27
21086;BME280;34247;50.064;19.970;2023-03-31T06:14:44;98386.44;;;15.13;65.20
21086;BME280;34247;50.064;19.970;2023-03-31T06:15:56;98380.72;;;15.52;63.39
21086;BME280;34247;50.064;19.970;2023-03-31T06:17:01;98381.25;;;15.81;62.90
21086;BME280;34247;50.064;19.970;2023-03-31T06:18:05;98387.13;;;15.93;60.19
21086;BME280;34247;50.064;19.970;2023-03-31T06:19:13;98383.97;;;16.32;60.04
21086;BME280;34247;50.064;19.970;2023-03-31T06:20:17;98381.84;;;16.60;59.41
21086;BME280;34247;50.064;19.970;2023-03-31T06:21:31;98386.78;;;16.89;57.63
21086;BME280;34247;50.064;19.970;2023-03-31T06:22:34;98387.78;;;17.04;57.15
21086;BME280;34247;50.064;19.970;2023-03-31T06:23:39;98381.41;;;17.29;56.68
21086;BME280;34247;50.064;19.970;2023-03-31T06:24:47;98387.41;;;17.56;56.19
21086;BME280;34247;50.064;19.970;2023-03-31T06:26:01;98372.31;;;17.71;52.70
21086;BME280;34247;50.064;19.970;2023-03-31T06:27:06;98375.88;;;18.11;53.60
21086;BME280;34247;50.064;19.970;2023-03-31T06:28:10;98374.81;;;18.20;51.53
21086;BME280;34247;50.064;19.970;2023-03-31T06:29:15;98378.81;;;18.24;52.81
21086;BME280;34247;50.064;19.970;2023-03-31T06:30:19;98383.22;;;18.48;51.37
21086;BME280;34247;50.064;19.970;2023-03-31T06:31:24;98381.78;;;18.60;50.59
21086;BME280;34247;50.064;19.970;2023-03-31T06:32:28;98375.47;;;18.84;50.41
21086;BME280;34247;50.064;19.970;2023-03-31T06:33:34;98376.06;;;18.94;48.24
21086;BME280;34247;50.064;19.970;2023-03-31T06:34:38;98373.34;;;19.17;49.47
21086;BME280;34247;50.064;19.970;2023-03-31T06:35:42;98370.38;;;19.50;49.12
21086;BME280;34247;50.064;19.970;2023-03-31T06:36:47;98377.28;;;19.67;48.03
21086;BME280;34247;50.064;19.970;2023-03-31T06:37:50;98380.53;;;19.92;47.89
21086;BME280;34247;50.064;19.970;2023-03-31T06:38:55;98369.84;;;20.14;46.61
21086;BME280;34247;50.064;19.970;2023-03-31T06:39:59;98369.13;;;20.41;47.02
21086;BME280;34247;50.064;19.970;2023-03-31T06:41:05;98375.66;;;20.32;45.58
21086;BME280;34247;50.064;19.970;2023-03-31T06:42:09;98370.22;;;20.61;45.12
21086;BME280;34247;50.064;19.970;2023-03-31T06:43:20;98373.19;;;20.67;44.28
21086;BME280;34247;50.064;19.970;2023-03-31T06:44:31;98369.91;;;20.92;44.26
21086;BME280;34247;50.064;19.970;2023-03-31T06:45:42;98364.28;;;21.09;43.81
21086;BME280;34247;50.064;19.970;2023-03-31T06:46:46;98375.13;;;21.37;43.41
21086;BME280;34247;50.064;19.970;2023-03-31T06:47:51;98368.81;;;21.51;42.75
21086;BME280;34247;50.064;19.970;2023-03-31T06:48:55;98365.75;;;21.95;42.13
21086;BME280;34247;50.064;19.970;2023-03-31T06:50:12;98359.50;;;22.29;41.82
21086;BME280;34247;50.064;19.970;2023-03-31T06:51:46;98365.56;;;22.45;39.25